FredonyerEastRWIS Atmospheric Data: 09/11/2019 Summary  Detailed Graphs  Station List

  Temperature     Wind Precipitation Visibility
Timestamp Air Wet
Bulb
Dew-
point
24-hr
Max
24-hr
Min
Relative
Humidity
Atmospheric
Pressure
Avg
Speed
Avg
Dir
Spot
Speed
Spot
Dir
Max
Speed
Max
Dir
  Rate Situation Start End 1 hr 3 hr 6 hr 12 hr 24 hr   Situation
Date Time °F °F °F °F °F % in Hg mph ° mph ° mph ° Y/N in/hr text Date Time Date Time in in in in in mi text
09/11/2019 12:08 AM 39.56 39.56 39.38 60.08 38.84 99.0 Not Reported 0.67 S 0.45 NE 2.01 NW No 0.000 No Precipitation 09/10/2019 03:05 PM 09/10/2019 03:10 PM 0.000 0.000 0.000 0.067 0.067 Not Reported Not Reported
09/11/2019 12:23 AM 39.02 39.02 38.84 60.08 38.84 99.0 Not Reported 0.45 NE 0.22 N 1.34 NW No 0.000 No Precipitation 09/10/2019 03:05 PM 09/10/2019 03:10 PM 0.000 0.000 0.000 0.067 0.067 Not Reported Not Reported
09/11/2019 12:39 AM 39.56 39.56 39.38 60.08 38.84 99.0 Not Reported 0.45 W 1.34 S 2.46 NW No 0.000 No Precipitation 09/10/2019 03:05 PM 09/10/2019 03:10 PM 0.000 0.000 0.000 0.067 0.067 Not Reported Not Reported
09/11/2019 12:54 AM 39.92 39.92 39.74 60.08 38.84 99.0 Not Reported 1.34 NW 0.22 NW 2.24 N No 0.000 No Precipitation 09/10/2019 03:05 PM 09/10/2019 03:10 PM 0.000 0.000 0.000 0.067 0.067 Not Reported Not Reported
09/11/2019 01:08 AM 39.20 39.20 39.02 60.08 38.84 99.0 Not Reported 0.89 NW 1.79 NW 2.24 NW No 0.000 No Precipitation 09/10/2019 03:05 PM 09/10/2019 03:10 PM 0.000 0.000 0.000 0.067 0.067 Not Reported Not Reported
09/11/2019 01:23 AM 38.84 38.84 38.66 60.08 38.84 99.0 Not Reported 0.67 NW 0.67 W 1.79 NW No 0.000 No Precipitation 09/10/2019 03:05 PM 09/10/2019 03:10 PM 0.000 0.000 0.000 0.067 0.067 Not Reported Not Reported
09/11/2019 01:38 AM 38.84 38.84 38.66 60.08 38.66 99.0 Not Reported 0.00 N 0.00 S 1.34 W No 0.000 No Precipitation 09/10/2019 03:05 PM 09/10/2019 03:10 PM 0.000 0.000 0.000 0.067 0.067 Not Reported Not Reported
09/11/2019 01:53 AM 38.48 38.48 38.30 60.08 38.48 99.0 Not Reported 0.00 N 0.00 NE 1.57 NW No 0.000 No Precipitation 09/10/2019 03:05 PM 09/10/2019 03:10 PM 0.000 0.000 0.000 0.067 0.067 Not Reported Not Reported
09/11/2019 02:10 AM 38.12 37.94 37.94 60.08 37.94 99.0 Not Reported 1.34 N 1.12 NW 0.89 NW No 0.000 No Precipitation 09/10/2019 03:05 PM 09/10/2019 03:10 PM 0.000 0.000 0.000 0.055 0.067 Not Reported Not Reported
09/11/2019 02:23 AM 37.94 37.94 37.94 60.08 37.76 99.0 Not Reported 1.34 NW 1.12 W 2.68 NW No 0.000 No Precipitation 09/10/2019 03:05 PM 09/10/2019 03:10 PM 0.000 0.000 0.000 0.039 0.067 Not Reported Not Reported
09/11/2019 02:38 AM 37.40 37.40 37.22 60.08 37.40 99.0 Not Reported 0.22 NW 0.00 NW 1.79 W No 0.000 No Precipitation 09/10/2019 03:05 PM 09/10/2019 03:10 PM 0.000 0.000 0.000 0.020 0.067 Not Reported Not Reported
09/11/2019 02:53 AM 37.40 37.22 37.22 60.08 37.22 99.0 Not Reported 0.22 W 0.00 NW 1.12 NW No 0.000 No Precipitation 09/10/2019 03:05 PM 09/10/2019 03:10 PM 0.000 0.000 0.000 0.008 0.067 Not Reported Not Reported
09/11/2019 03:08 AM 37.40 37.40 37.22 60.08 37.22 99.0 Not Reported 1.34 N 0.89 NE 0.89 SE No 0.000 No Precipitation 09/10/2019 03:05 PM 09/10/2019 03:10 PM 0.000 0.000 0.000 0.000 0.067 Not Reported Not Reported
09/11/2019 03:24 AM 38.12 37.94 37.94 60.08 37.22 99.0 Not Reported 1.57 NW 0.00 NE 3.13 NW No 0.000 No Precipitation 09/10/2019 03:05 PM 09/10/2019 03:10 PM 0.000 0.000 0.000 0.000 0.067 Not Reported Not Reported
09/11/2019 03:38 AM 37.22 37.04 37.04 60.08 37.22 99.0 Not Reported 0.45 NE 0.67 NE 2.01 NW No 0.000 No Precipitation 09/10/2019 03:05 PM 09/10/2019 03:10 PM 0.000 0.000 0.000 0.000 0.067 Not Reported Not Reported
09/11/2019 03:53 AM 36.86 36.86 36.86 60.08 36.86 99.0 Not Reported 0.00 N 0.00 W 1.34 NW No 0.000 No Precipitation 09/10/2019 03:05 PM 09/10/2019 03:10 PM 0.000 0.000 0.000 0.000 0.067 Not Reported Not Reported
09/11/2019 04:08 AM 36.14 36.14 36.14 60.08 36.14 99.0 Not Reported 0.00 NW 0.00 NW 1.34 NW No 0.000 No Precipitation 09/10/2019 03:05 PM 09/10/2019 03:10 PM 0.000 0.000 0.000 0.000 0.067 Not Reported Not Reported
09/11/2019 04:23 AM 35.96 35.96 35.96 60.08 35.96 99.0 Not Reported 0.00 N 0.00 W 0.00 NW No 0.000 No Precipitation 09/10/2019 03:05 PM 09/10/2019 03:10 PM 0.000 0.000 0.000 0.000 0.067 Not Reported Not Reported
09/11/2019 04:38 AM 36.32 36.32 36.32 60.08 35.78 99.0 Not Reported 1.79 NW 1.34 NW 1.12 NE No 0.000 No Precipitation 09/10/2019 03:05 PM 09/10/2019 03:10 PM 0.000 0.000 0.000 0.000 0.067 Not Reported Not Reported
09/11/2019 04:53 AM 36.14 36.14 36.14 60.08 35.78 99.0 Not Reported 0.00 N 0.00 SW 0.67 NW No 0.000 No Precipitation 09/10/2019 03:05 PM 09/10/2019 03:10 PM 0.000 0.000 0.000 0.000 0.067 Not Reported Not Reported
09/11/2019 05:08 AM 35.42 35.24 35.24 60.08 35.24 99.0 Not Reported 0.00 N 0.00 SW 0.89 W No 0.000 No Precipitation 09/10/2019 03:05 PM 09/10/2019 03:10 PM 0.000 0.000 0.000 0.000 0.067 Not Reported Not Reported
09/11/2019 05:23 AM 35.24 35.24 35.24 60.08 35.06 99.0 Not Reported 0.00 NW 0.00 NW 1.12 NW No 0.000 No Precipitation 09/10/2019 03:05 PM 09/10/2019 03:10 PM 0.000 0.000 0.000 0.000 0.067 Not Reported Not Reported
09/11/2019 05:38 AM 35.60 35.60 35.42 60.08 35.06 99.0 Not Reported 0.00 N 0.00 NW 0.67 NW No 0.000 No Precipitation 09/10/2019 03:05 PM 09/10/2019 03:10 PM 0.000 0.000 0.000 0.000 0.067 Not Reported Not Reported
09/11/2019 05:53 AM 35.06 35.06 35.06 60.08 35.06 99.0 Not Reported 0.00 N 0.00 NW 0.00 NW No 0.000 No Precipitation 09/10/2019 03:05 PM 09/10/2019 03:10 PM 0.000 0.000 0.000 0.000 0.067 Not Reported Not Reported
09/11/2019 06:08 AM 34.70 34.70 34.70 60.08 34.70 99.0 Not Reported 0.22 NW 0.00 NW 0.00 NW No 0.000 No Precipitation 09/10/2019 03:05 PM 09/10/2019 03:10 PM 0.000 0.000 0.000 0.000 0.067 Not Reported Not Reported
09/11/2019 06:23 AM 34.70 34.70 34.70 60.08 34.70 99.0 Not Reported 0.00 NW 0.00 NW 0.67 NW No 0.000 No Precipitation 09/10/2019 03:05 PM 09/10/2019 03:10 PM 0.000 0.000 0.000 0.000 0.067 Not Reported Not Reported
09/11/2019 06:40 AM 34.88 34.88 34.70 60.08 34.70 99.0 Not Reported 0.00 N 0.00 NW 0.89 NW No 0.000 No Precipitation 09/10/2019 03:05 PM 09/10/2019 03:10 PM 0.000 0.000 0.000 0.000 0.067 Not Reported Not Reported
09/11/2019 06:53 AM 34.70 34.70 34.70 60.08 34.70 99.0 Not Reported 0.00 NW 0.00 NW 0.00 NW No 0.000 No Precipitation 09/10/2019 03:05 PM 09/10/2019 03:10 PM 0.000 0.000 0.000 0.000 0.067 Not Reported Not Reported
09/11/2019 07:08 AM 35.06 35.06 34.88 60.08 34.70 99.0 Not Reported 0.00 S 0.00 SE 1.12 NW No 0.000 No Precipitation 09/10/2019 03:05 PM 09/10/2019 03:10 PM 0.000 0.000 0.000 0.000 0.067 Not Reported Not Reported
09/11/2019 07:23 AM 35.42 35.42 35.42 60.08 34.70 99.0 Not Reported 0.00 N 0.00 N 0.00 SE No 0.000 No Precipitation 09/10/2019 03:05 PM 09/10/2019 03:10 PM 0.000 0.000 0.000 0.000 0.067 Not Reported Not Reported
09/11/2019 07:38 AM 36.50 36.50 36.50 60.08 34.70 99.0 Not Reported 0.00 N 0.00 N 0.00 N No 0.000 No Precipitation 09/10/2019 03:05 PM 09/10/2019 03:10 PM 0.000 0.000 0.000 0.000 0.067 Not Reported Not Reported
09/11/2019 07:54 AM 38.30 38.12 38.30 60.08 34.70 99.0 Not Reported 0.00 N 0.00 S 0.00 NE No 0.000 No Precipitation 09/10/2019 03:05 PM 09/10/2019 03:10 PM 0.000 0.000 0.000 0.000 0.067 Not Reported Not Reported
09/11/2019 08:09 AM 40.46 40.46 40.46 60.08 34.70 99.0 Not Reported 0.00 N 0.00 NE 0.00 NE No 0.000 No Precipitation 09/10/2019 03:05 PM 09/10/2019 03:10 PM 0.000 0.000 0.000 0.000 0.067 Not Reported Not Reported
09/11/2019 08:23 AM 42.62 42.62 42.62 60.08 34.70 99.0 Not Reported 0.00 N 0.00 SE 0.67 SE No 0.000 No Precipitation 09/10/2019 03:05 PM 09/10/2019 03:10 PM 0.000 0.000 0.000 0.000 0.067 Not Reported Not Reported
09/11/2019 08:38 AM 44.24 44.24 44.24 60.08 34.70 99.0 Not Reported 1.34 SE 1.34 SE 0.67 SE No 0.000 No Precipitation 09/10/2019 03:05 PM 09/10/2019 03:10 PM 0.000 0.000 0.000 0.000 0.067 Not Reported Not Reported
09/11/2019 08:53 AM 45.68 45.50 45.50 60.08 34.70 99.0 Not Reported 1.34 SE 1.57 S 1.34 S No 0.000 No Precipitation 09/10/2019 03:05 PM 09/10/2019 03:10 PM 0.000 0.000 0.000 0.000 0.067 Not Reported Not Reported
09/11/2019 09:08 AM 50.18 46.22 42.26 60.08 34.70 73.0 Not Reported 0.45 S 1.12 SE 2.24 SE No 0.000 No Precipitation 09/10/2019 03:05 PM 09/10/2019 03:10 PM 0.000 0.000 0.000 0.000 0.067 Not Reported Not Reported
09/11/2019 09:23 AM 51.44 46.76 41.54 60.08 34.70 68.0 Not Reported 3.58 S 3.36 SE 3.13 S No 0.000 No Precipitation 09/10/2019 03:05 PM 09/10/2019 03:10 PM 0.000 0.000 0.000 0.000 0.067 Not Reported Not Reported
09/11/2019 09:38 AM 53.06 47.12 40.46 60.08 34.70 61.0 Not Reported 1.57 S 1.57 N 3.80 SE No 0.000 No Precipitation 09/10/2019 03:05 PM 09/10/2019 03:10 PM 0.000 0.000 0.000 0.000 0.067 Not Reported Not Reported
09/11/2019 09:53 AM 54.50 47.30 40.10 60.08 34.70 57.0 Not Reported 2.24 SE 3.36 SE 4.03 SE No 0.000 No Precipitation 09/10/2019 03:05 PM 09/10/2019 03:10 PM 0.000 0.000 0.000 0.000 0.067 Not Reported Not Reported
09/11/2019 10:09 AM 55.22 46.76 36.86 60.08 34.70 51.0 Not Reported 3.13 NE 0.89 SE 3.36 SE No 0.000 No Precipitation 09/10/2019 03:05 PM 09/10/2019 03:10 PM 0.000 0.000 0.000 0.000 0.067 Not Reported Not Reported
09/11/2019 10:24 AM 57.02 47.66 38.84 60.08 34.70 48.0 Not Reported 0.67 SW 2.24 NE 5.14 SE No 0.000 No Precipitation 09/10/2019 03:05 PM 09/10/2019 03:10 PM 0.000 0.000 0.000 0.000 0.067 Not Reported Not Reported
09/11/2019 10:38 AM 58.64 48.56 38.66 60.08 34.70 47.0 Not Reported 2.91 SE 2.68 SE 5.14 E No 0.000 No Precipitation 09/10/2019 03:05 PM 09/10/2019 03:10 PM 0.000 0.000 0.000 0.000 0.067 Not Reported Not Reported
09/11/2019 10:54 AM 57.02 47.66 37.76 60.08 34.70 48.0 Not Reported 1.57 S 1.12 SE 5.59 SE No 0.000 No Precipitation 09/10/2019 03:05 PM 09/10/2019 03:10 PM 0.000 0.000 0.000 0.000 0.067 Not Reported Not Reported
09/11/2019 11:08 AM 59.54 49.10 38.84 60.08 34.70 46.0 Not Reported 2.01 SE 3.80 NE 4.47 E No 0.000 No Precipitation 09/10/2019 03:05 PM 09/10/2019 03:10 PM 0.000 0.000 0.000 0.000 0.067 Not Reported Not Reported
09/11/2019 11:23 AM 61.16 48.92 36.50 61.16 34.70 39.0 Not Reported 2.46 SE 2.01 N 4.70 E No 0.000 No Precipitation 09/10/2019 03:05 PM 09/10/2019 03:10 PM 0.000 0.000 0.000 0.000 0.067 Not Reported Not Reported
09/11/2019 11:39 AM 61.70 48.56 35.06 62.42 34.70 37.0 Not Reported 2.91 SE 2.24 S 3.80 SE No 0.000 No Precipitation 09/10/2019 03:05 PM 09/10/2019 03:10 PM 0.000 0.000 0.000 0.000 0.067 Not Reported Not Reported
09/11/2019 11:53 AM 60.62 48.20 34.70 62.42 34.70 37.0 Not Reported 3.58 NE 3.13 S 4.70 S No 0.000 No Precipitation 09/10/2019 03:05 PM 09/10/2019 03:10 PM 0.000 0.000 0.000 0.000 0.067 Not Reported Not Reported
09/11/2019 12:09 PM 62.42 49.82 37.04 62.42 34.70 38.0 Not Reported 4.70 E 2.01 NE 5.37 NE No 0.000 No Precipitation 09/10/2019 03:05 PM 09/10/2019 03:10 PM 0.000 0.000 0.000 0.000 0.067 Not Reported Not Reported
09/11/2019 12:25 PM 63.50 49.46 34.70 64.58 34.70 34.0 Not Reported 2.01 N 3.36 E 7.38 NE No 0.000 No Precipitation 09/10/2019 03:05 PM 09/10/2019 03:10 PM 0.000 0.000 0.000 0.000 0.067 Not Reported Not Reported
09/11/2019 12:38 PM 65.48 50.18 33.80 65.66 34.70 30.0 Not Reported 4.03 SE 3.58 E 6.71 S No 0.000 No Precipitation 09/10/2019 03:05 PM 09/10/2019 03:10 PM 0.000 0.000 0.000 0.000 0.067 Not Reported Not Reported
09/11/2019 12:53 PM 64.04 49.28 33.08 65.66 34.70 31.0 Not Reported 2.91 E 4.25 NE 5.14 SE No 0.000 No Precipitation 09/10/2019 03:05 PM 09/10/2019 03:10 PM 0.000 0.000 0.000 0.000 0.067 Not Reported Not Reported
09/11/2019 01:08 PM 64.58 49.46 34.52 66.02 34.70 32.0 Not Reported 2.91 NE 3.36 NE 5.14 E No 0.000 No Precipitation 09/10/2019 03:05 PM 09/10/2019 03:10 PM 0.000 0.000 0.000 0.000 0.067 Not Reported Not Reported
09/11/2019 01:23 PM 65.48 50.00 33.26 66.02 34.70 30.0 Not Reported 2.24 NE 1.12 SE 5.82 NE No 0.000 No Precipitation 09/10/2019 03:05 PM 09/10/2019 03:10 PM 0.000 0.000 0.000 0.000 0.067 Not Reported Not Reported
09/11/2019 01:39 PM 64.94 49.82 33.80 66.38 34.70 31.0 Not Reported 4.92 S 4.03 SW 5.14 N No 0.000 No Precipitation 09/10/2019 03:05 PM 09/10/2019 03:10 PM 0.000 0.000 0.000 0.000 0.067 Not Reported Not Reported
09/11/2019 01:53 PM 66.20 50.72 34.88 66.38 34.70 31.0 Not Reported 4.92 SE 2.46 SE 8.50 S No 0.000 No Precipitation 09/10/2019 03:05 PM 09/10/2019 03:10 PM 0.000 0.000 0.000 0.000 0.067 Not Reported Not Reported
09/11/2019 02:08 PM 66.92 50.90 33.98 68.00 34.70 29.0 Not Reported 2.01 NE 3.13 NE 6.93 SE No 0.000 No Precipitation 09/10/2019 03:05 PM 09/10/2019 03:10 PM 0.000 0.000 0.000 0.000 0.059 Not Reported Not Reported
09/11/2019 02:24 PM 66.02 50.00 32.72 68.00 34.70 28.0 Not Reported 2.01 W 1.57 S 5.14 SE No 0.000 No Precipitation 09/10/2019 03:05 PM 09/10/2019 03:10 PM 0.000 0.000 0.000 0.000 0.039 Not Reported Not Reported
09/11/2019 02:38 PM 67.28 50.72 32.90 68.00 34.70 27.0 Not Reported 3.13 S 2.01 E 4.25 NW No 0.000 No Precipitation 09/10/2019 03:05 PM 09/10/2019 03:10 PM 0.000 0.000 0.000 0.000 0.020 Not Reported Not Reported
09/11/2019 02:54 PM 67.82 51.08 33.26 68.00 34.70 27.0 Not Reported 5.14 SE 6.49 E 7.38 S No 0.000 No Precipitation 09/10/2019 03:05 PM 09/10/2019 03:10 PM 0.000 0.000 0.000 0.000 0.008 Not Reported Not Reported
09/11/2019 03:08 PM 66.92 50.54 32.90 68.54 34.70 28.0 Not Reported 1.12 E 2.24 E 7.83 SE No 0.000 No Precipitation 09/10/2019 03:05 PM 09/10/2019 03:10 PM 0.000 0.000 0.000 0.000 0.000 Not Reported Not Reported
09/11/2019 03:24 PM 66.92 50.36 32.72 68.54 34.70 27.0 Not Reported 5.59 SE 6.26 S 5.37 NE No 0.000 No Precipitation 09/10/2019 03:05 PM 09/10/2019 03:10 PM 0.000 0.000 0.000 0.000 0.000 Not Reported Not Reported
09/11/2019 03:39 PM 66.56 50.54 33.26 68.54 34.70 28.0 Not Reported 3.80 S 0.67 W 7.16 SE No 0.000 No Precipitation 09/10/2019 03:05 PM 09/10/2019 03:10 PM 0.000 0.000 0.000 0.000 0.000 Not Reported Not Reported
09/11/2019 03:53 PM 69.26 51.62 33.08 69.80 34.70 26.0 Not Reported 2.46 E 4.92 E 6.49 S No 0.000 No Precipitation 09/10/2019 03:05 PM 09/10/2019 03:10 PM 0.000 0.000 0.000 0.000 0.000 Not Reported Not Reported
09/11/2019 04:08 PM 68.90 51.08 32.18 70.70 34.70 25.0 Not Reported 4.25 SE 4.47 S 6.26 S No 0.000 No Precipitation 09/10/2019 03:05 PM 09/10/2019 03:10 PM 0.000 0.000 0.000 0.000 0.000 Not Reported Not Reported
09/11/2019 04:23 PM 68.72 51.80 34.70 70.70 34.70 28.0 Not Reported 0.89 W 2.24 SE 5.14 E No 0.000 No Precipitation 09/10/2019 03:05 PM 09/10/2019 03:10 PM 0.000 0.000 0.000 0.000 0.000 Not Reported Not Reported
09/11/2019 04:38 PM 69.08 51.80 34.52 70.70 34.70 27.0 Not Reported 2.01 N 2.91 N 3.13 NE No 0.000 No Precipitation 09/10/2019 03:05 PM 09/10/2019 03:10 PM 0.000 0.000 0.000 0.000 0.000 Not Reported Not Reported
09/11/2019 04:53 PM 69.62 51.80 33.44 70.70 34.70 26.0 Not Reported 2.68 SE 0.45 E 4.70 SE No 0.000 No Precipitation 09/10/2019 03:05 PM 09/10/2019 03:10 PM 0.000 0.000 0.000 0.000 0.000 Not Reported Not Reported
09/11/2019 05:08 PM 68.18 51.26 33.62 70.70 34.70 27.0 Not Reported 3.36 S 2.91 S 4.25 SE No 0.000 No Precipitation 09/10/2019 03:05 PM 09/10/2019 03:10 PM 0.000 0.000 0.000 0.000 0.000 Not Reported Not Reported
09/11/2019 05:23 PM 68.90 51.44 33.08 70.70 34.70 26.0 Not Reported 3.80 S 3.13 E 5.14 NE No 0.000 No Precipitation 09/10/2019 03:05 PM 09/10/2019 03:10 PM 0.000 0.000 0.000 0.000 0.000 Not Reported Not Reported
09/11/2019 05:38 PM 68.72 51.80 34.70 70.70 34.70 28.0 Not Reported 1.57 NE 1.12 N 4.70 SE No 0.000 No Precipitation 09/10/2019 03:05 PM 09/10/2019 03:10 PM 0.000 0.000 0.000 0.000 0.000 Not Reported Not Reported
09/11/2019 05:53 PM 67.82 50.72 32.36 70.70 34.70 26.0 Not Reported 1.57 SW 2.46 NE 4.47 SE No 0.000 No Precipitation 09/10/2019 03:05 PM 09/10/2019 03:10 PM 0.000 0.000 0.000 0.000 0.000 Not Reported Not Reported
09/11/2019 06:08 PM 64.40 50.18 35.78 70.70 34.70 34.0 Not Reported 0.22 NW 0.67 N 3.13 SE No 0.000 No Precipitation 09/10/2019 03:05 PM 09/10/2019 03:10 PM 0.000 0.000 0.000 0.000 0.000 Not Reported Not Reported
09/11/2019 06:23 PM 59.18 49.64 39.92 70.70 34.70 48.0 Not Reported 1.57 W 1.12 NW 3.13 W No 0.000 No Precipitation 09/10/2019 03:05 PM 09/10/2019 03:10 PM 0.000 0.000 0.000 0.000 0.000 Not Reported Not Reported
09/11/2019 06:38 PM 56.84 47.66 38.30 70.70 34.70 49.0 Not Reported 1.79 NW 1.57 NW 2.24 NW No 0.000 No Precipitation 09/10/2019 03:05 PM 09/10/2019 03:10 PM 0.000 0.000 0.000 0.000 0.000 Not Reported Not Reported
09/11/2019 06:53 PM 55.40 47.12 38.48 70.70 34.70 53.0 Not Reported 0.67 NW 0.89 NW 2.01 NW No 0.000 No Precipitation 09/10/2019 03:05 PM 09/10/2019 03:10 PM 0.000 0.000 0.000 0.000 0.000 Not Reported Not Reported
09/11/2019 07:09 PM 54.32 46.22 37.22 70.70 34.70 52.0 Not Reported 2.01 NW 1.57 W 2.24 NW No 0.000 No Precipitation 09/10/2019 03:05 PM 09/10/2019 03:10 PM 0.000 0.000 0.000 0.000 0.000 Not Reported Not Reported
09/11/2019 07:23 PM 53.24 45.50 37.04 70.70 34.70 53.0 Not Reported 1.12 W 1.34 W 1.79 W No 0.000 No Precipitation 09/10/2019 03:05 PM 09/10/2019 03:10 PM 0.000 0.000 0.000 0.000 0.000 Not Reported Not Reported
09/11/2019 07:40 PM 51.44 44.42 36.50 70.70 34.70 56.0 Not Reported 0.00 W 0.00 W 2.01 NW No 0.000 No Precipitation 09/10/2019 03:05 PM 09/10/2019 03:10 PM 0.000 0.000 0.000 0.000 0.000 Not Reported Not Reported
09/11/2019 07:53 PM 50.54 44.06 36.86 70.70 34.70 59.0 Not Reported 0.00 N 0.00 W 1.12 W No 0.000 No Precipitation 09/10/2019 03:05 PM 09/10/2019 03:10 PM 0.000 0.000 0.000 0.000 0.000 Not Reported Not Reported
09/11/2019 08:08 PM 49.10 43.16 36.32 70.70 34.70 60.0 Not Reported 0.00 W 0.00 W 0.45 W No 0.000 No Precipitation 09/10/2019 03:05 PM 09/10/2019 03:10 PM 0.000 0.000 0.000 0.000 0.000 Not Reported Not Reported
09/11/2019 08:23 PM 48.20 42.44 35.78 70.70 34.70 62.0 Not Reported 0.22 NW 0.00 NW 1.34 NW No 0.000 No Precipitation 09/10/2019 03:05 PM 09/10/2019 03:10 PM 0.000 0.000 0.000 0.000 0.000 Not Reported Not Reported
09/11/2019 08:41 PM 47.30 41.90 35.42 70.70 34.70 63.0 Not Reported 1.34 NW 1.12 NW 1.57 NW No 0.000 No Precipitation 09/10/2019 03:05 PM 09/10/2019 03:10 PM 0.000 0.000 0.000 0.000 0.000 Not Reported Not Reported
09/11/2019 08:53 PM 46.94 41.72 35.78 70.70 34.70 65.0 Not Reported 0.00 N 0.00 SW 1.57 NW No 0.000 No Precipitation 09/10/2019 03:05 PM 09/10/2019 03:10 PM 0.000 0.000 0.000 0.000 0.000 Not Reported Not Reported
09/11/2019 09:08 PM 46.04 41.18 35.60 70.70 34.70 66.0 Not Reported 0.00 N 0.00 W 0.00 W No 0.000 No Precipitation 09/10/2019 03:05 PM 09/10/2019 03:10 PM 0.000 0.000 0.000 0.000 0.000 Not Reported Not Reported
09/11/2019 09:23 PM 45.50 40.82 35.24 70.70 34.70 67.0 Not Reported 0.00 N 0.00 W 0.00 W No 0.000 No Precipitation 09/10/2019 03:05 PM 09/10/2019 03:10 PM 0.000 0.000 0.000 0.000 0.000 Not Reported Not Reported
09/11/2019 09:38 PM 45.14 40.46 34.88 70.70 34.70 67.0 Not Reported 0.00 N 0.00 NW 1.34 NW No 0.000 No Precipitation 09/10/2019 03:05 PM 09/10/2019 03:10 PM 0.000 0.000 0.000 0.000 0.000 Not Reported Not Reported
09/11/2019 09:53 PM 44.42 40.28 35.24 70.70 34.70 69.0 Not Reported 0.00 N 0.00 W 0.00 NW No 0.000 No Precipitation 09/10/2019 03:05 PM 09/10/2019 03:10 PM 0.000 0.000 0.000 0.000 0.000 Not Reported Not Reported
09/11/2019 10:08 PM 43.88 39.92 35.06 70.70 34.70 70.0 Not Reported 1.12 NW 1.12 NW 0.67 N No 0.000 No Precipitation 09/10/2019 03:05 PM 09/10/2019 03:10 PM 0.000 0.000 0.000 0.000 0.000 Not Reported Not Reported
09/11/2019 10:23 PM 43.70 39.74 34.70 70.70 34.70 70.0 Not Reported 0.00 N 0.00 SW 0.00 N No 0.000 No Precipitation 09/10/2019 03:05 PM 09/10/2019 03:10 PM 0.000 0.000 0.000 0.000 0.000 Not Reported Not Reported
09/11/2019 10:40 PM 43.34 39.56 34.88 70.70 34.70 72.0 Not Reported 0.00 S 0.00 S 1.12 N No 0.000 No Precipitation 09/10/2019 03:05 PM 09/10/2019 03:10 PM 0.000 0.000 0.000 0.000 0.000 Not Reported Not Reported
09/11/2019 10:53 PM 42.80 39.20 34.52 70.70 34.70 72.0 Not Reported 0.89 NW 1.12 NW 1.12 NW No 0.000 No Precipitation 09/10/2019 03:05 PM 09/10/2019 03:10 PM 0.000 0.000 0.000 0.000 0.000 Not Reported Not Reported
09/11/2019 11:08 PM 42.80 39.38 34.88 70.70 34.70 73.0 Not Reported 0.00 N 0.00 SW 1.57 NW No 0.000 No Precipitation 09/10/2019 03:05 PM 09/10/2019 03:10 PM 0.000 0.000 0.000 0.000 0.000 Not Reported Not Reported
09/11/2019 11:23 PM 42.26 38.84 34.34 70.70 34.70 73.0 Not Reported 0.22 N 0.67 N 1.79 N No 0.000 No Precipitation 09/10/2019 03:05 PM 09/10/2019 03:10 PM 0.000 0.000 0.000 0.000 0.000 Not Reported Not Reported
09/11/2019 11:40 PM 41.54 38.30 34.16 70.70 34.70 74.0 Not Reported 0.00 N 0.00 NW 0.00 NW No 0.000 No Precipitation 09/10/2019 03:05 PM 09/10/2019 03:10 PM 0.000 0.000 0.000 0.000 0.000 Not Reported Not Reported
09/11/2019 11:53 PM 41.36 38.30 34.34 70.70 34.70 76.0 Not Reported 0.00 N 0.00 N 1.12 N No 0.000 No Precipitation 09/10/2019 03:05 PM 09/10/2019 03:10 PM 0.000 0.000 0.000 0.000 0.000 Not Reported Not Reported